Hlavní strana
METAR-TAF:

METAR-TAF

Letiště :

Nancy, Francie

zeměpisná šířka: 48-41N, zeměpisná délka: 006-13E, výška: 225 m

Aktuální stav počasí

Zpráva byla vytvořena před 29 minutami, v 09:30 UTC
Jihovýchodní vítr 6 kt, proměnlivý mezi východoseverovýchodním a jižním
Teplota 18°C
Vlhkost vzduchu 52%
Tlak 1019 hPa
Viditelnost 10 km a více
Skoro jasno ve výšce 4500 ft
Polojasno ve výšce 5800 ft
Oblačno až skoro zataženo ve výšce 7000 ft

METAR: LFSN 130930Z AUTO 13006KT 070V170 9999 FEW045 SCT058 BKN070 18/08 Q1019

Čas: 11:59 (09:59 UTC)


TAF: chybějící

Stav a předpovědi počasí z více než 4 000 letišť (zprávy METAR a TAF).

Červené a žluté tečky na mapě představují dostupné meteorologické stanice.

Když kurzor umístíte na tečku, zobrazí se název stanice.

Pak kliknutím zobrazíte stav a předpověď počasí.

Chcete-li změnit mapu, kliknutím na zelené tlačítko se znaménkem +mapu přiblížíte, kliknutím na zelené tlačítko se znaménkem – mapu oddálíte a kliknutím na zelené šipky přejdete na sousední mapy.


METAR-TAF: